KLYH/LYH METAR and TAF weather

Enter ICAO airport designator
Station Type Date Time Source
KLYH METAR 2018/12/15 22:17 UTC NOAA

KLYH 152217Z 03016KT 4SM RA BR SCT007 BKN032 OVC060 11/11 A2989 RMK AO2 PRESFR P0006 T01060106


Station Type Date Time Source
KLYH Decoded METAR 2018/12/15 22:17 UTC NOAA

LYNCHBURG REGIONAL AIRPORT, VA, United States (KLYH) 37-19N 079-12W 295M
Dec 15, 2018 - 05:17 PM EST / 2018.12.15 2217 UTC
Wind: from the NNE (030 degrees) at 18 MPH (16 KT):0
Visibility: 4 mile(s):0
Sky conditions: overcast
Weather: rain; mist
Precipitation last hour: 0.06 inches
Temperature: 51.1 F (10.6 C)
Dew Point: 51.1 F (10.6 C)
Relative Humidity: 100%
Pressure (altimeter): 29.89 in. Hg (1012 hPa)
Pressure tendency: falling rapidly
ob: KLYH 152217Z 03016KT 4SM RA BR SCT007 BKN032 OVC060 11/11 A2989 RMK AO2 PRESFR P0006 T01060106
cycle: 22

Station Type Date Time Source
KLYH TAF 2018/12/15 21:48 UTC NOAA

TAF
AMD KLYH 152045Z 1521/1618 00000KT 4SM -RA BR OVC003
FM152300 00000KT 2SM -DZ BR OVC003
FM160200 VRB04KT 1/2SM -DZ FG OVC002
FM161300 VRB04KT P6SM -DZ OVC005
FM161500 32005KT P6SM OVC008
FM161600 32005KT P6SM SKC


Example: see airport list